Airfield :
LOGIN :

Register | Disclaimer

   EN    FR    IT 

 










Legend :    VFR   Marginal VFR   IFR   Intensive IFR   Very Intensive IFR
Visi :
Ceiling :
>= 8 km
>= 3000ft
5 to 8 km
1000 to 3000 ft
1500m to 5 km
500 to 1000 ft
800 to 1500m
200 to 500 ft
< 800m
< 200 ft
Symbols :   Thunderstorms  Fog  Heavy snow  Heavy precipitations  Wind > 20 kt
SIGMETs :     Misc.  Thunderstorms  Icing  Turbulence  Mountain Waves  Volcanic Ashes







- Airport Elevation : 1249 ft


ETSN - Neuburg AB

CURRENT METAR :
  • 201539Z 28007KT 9999 -RA FEW040CB BKN090 21/13 Q1014 RETS BLU

EXPIRED METARs :
  • 201527Z 25010KT 9999 -TSRA FEW040CB BKN090 21/12 Q1014 BLU
  • 201505Z 25014G24KT 9999 -RA FEW040CB BKN090 21/13 Q1014 RETS BLU
  • 201425Z 25008KT 9999 VCTS -SHRA FEW040CB BKN090 BKN110 23/15 Q1014 BLU
  • 201320Z 27006KT 9999 FEW040TCU BKN100 24/13 Q1014 BLU

TAF TAF ETSN
Valid from the 20 at 14:00 until the 20 at 23:00 UTC


201340Z 2014/2023 25007KT 9999 NSW FEW040 BKN080
TEMPO 2014/2020 26012G25KT 6000 SHRA BKN030CB
PROB30 2014/2020 27020G35KT 3000 TSRA BKN020CB BY ETGL
No reported NOTAMs for that airfield.
1 SIGMET reported for the München FIR (EDMM) :
 
Squall lined thunderstorms and hail
EDMM SIGMET 8 VALID 201520/201620 EDZF
EDMM MUNCHEN FIR SQL TSGR FCST WI N5028 E01110 - N4903 E01239 - N4802 E01330 - N4712 E01257 - N4916 E01029 - N4955 E01039 - N5028 E01110 TOP FL380 MOV E NC=



MET'MAP, your aeronautical weather chart ! - Copyright ORBIFLY December 2007 - Disclaimer

ORBIFLY MET'MAP TEAM :

Programming & Development : Alexandra Zaïnal
Concept & Development : Baudouin d'Aumeries
Co-Development & Prog : Marc-Olivier Méhu
Technical & hardware support : Manuel Goepfert

Contact : metmap@orbifly.com




SOURCES & CREDITS :

   NOAA